Time;durP1;ratioP1;P1;durP2;ratioP2;P2;SDS_P1;SDS_P2;PMS_P1;PMS_P2;Temp;Humidity;BMP_temperature;BMP_pressure;BME280_temperature;BME280_humidity;BME280_pressure;Samples;Min_cycle;Max_cycle;Signal;HPM_P1;HPM_P2
2023/10/13 00:00:37;;;;;;;;;7.00;6.60;;;;;19.84;100.00;98807.16;6218061;27;98522;-61
2023/10/13 00:03:41;;;;;;;;;8.60;7.40;;;;;19.76;100.00;98789.41;6251136;27;96940;-61
2023/10/13 00:06:45;;;;;;;;;9.00;8.00;;;;;19.87;100.00;98810.16;6251968;28;96304;-61
2023/10/13 00:09:48;;;;;;;;;7.00;6.00;;;;;19.88;100.00;98814.53;6250068;28;96697;-61
2023/10/13 00:12:53;;;;;;;;;6.00;6.00;;;;;19.85;100.00;98808.78;6250731;27;96489;-61
2023/10/13 00:15:59;;;;;;;;;9.00;9.00;;;;;19.86;100.00;98802.22;6231170;28;96616;-61
2023/10/13 00:19:05;;;;;;;;;8.00;7.00;;;;;19.83;100.00;98806.34;6251445;28;97627;-61
2023/10/13 00:22:10;;;;;;;;;8.00;8.00;;;;;19.89;100.00;98804.38;6243608;27;96700;-61
2023/10/13 00:25:19;;;;;;;;;8.80;6.80;;;;;19.90;100.00;98806.00;6219977;28;96148;-59
2023/10/13 00:28:24;;;;;;;;;7.50;7.50;;;;;19.94;100.00;98804.34;6198343;28;96493;-61
2023/10/13 00:31:33;;;;;;;;;9.00;7.00;;;;;19.94;100.00;98807.06;6227920;27;96333;-60
2023/10/13 00:34:37;;;;;;;;;7.75;7.00;;;;;19.96;100.00;98791.19;6242694;28;96253;-60
2023/10/13 00:37:43;;;;;;;;;7.60;6.60;;;;;19.94;100.00;98787.91;6224475;28;96393;-60
2023/10/13 00:40:52;;;;;;;;;8.40;8.00;;;;;19.93;100.00;98797.25;6220999;27;98608;-59
2023/10/13 00:44:06;;;;;;;;;10.00;9.00;;;;;19.93;100.00;98797.25;6200667;28;98454;-60
2023/10/13 00:47:12;;;;;;;;;10.00;9.00;;;;;19.93;100.00;98796.44;6198541;28;97455;-60
2023/10/13 00:50:17;;;;;;;;;7.00;6.40;;;;;19.89;100.00;98793.44;6238072;27;96487;-60
2023/10/13 00:53:21;;;;;;;;;8.00;7.00;;;;;19.88;100.00;98805.50;6247121;27;96392;-61
2023/10/13 00:56:27;;;;;;;;;19.33;16.33;;;;;19.83;100.00;98800.88;6241342;28;96294;-60
2023/10/13 00:59:36;;;;;;;;;27.25;25.25;;;;;19.80;100.00;98793.22;6240011;28;96519;-59
2023/10/13 01:02:38;;;;;;;;;14.50;13.00;;;;;19.77;100.00;98801.19;6194328;22;96597;-60
2023/10/13 01:05:43;;;;;;;;;8.00;7.00;;;;;19.69;100.00;98788.94;6192667;28;98428;-61
2023/10/13 01:08:50;;;;;;;;;8.20;8.00;;;;;19.63;100.00;98790.06;6201672;28;96690;-60
2023/10/13 01:11:54;;;;;;;;;13.00;9.00;;;;;19.58;100.00;98784.63;6188847;28;96302;-60
2023/10/13 01:14:57;;;;;;;;;7.33;6.33;;;;;19.51;100.00;98784.09;6233358;28;96523;-60
2023/10/13 01:18:11;;;;;;;;;7.00;7.00;;;;;19.47;100.00;98780.31;6198856;28;98448;-61
2023/10/13 01:21:19;;;;;;;;;6.40;5.40;;;;;19.39;100.00;98775.41;6198377;28;96344;-60
2023/10/13 01:24:24;;;;;;;;;9.60;8.00;;;;;19.32;100.00;98783.91;6217458;28;96213;-60
2023/10/13 01:27:29;;;;;;;;;8.80;7.00;;;;;19.24;100.00;98768.09;6215536;28;97815;-62
2023/10/13 01:30:31;;;;;;;;;6.00;6.00;;;;;19.24;100.00;98779.03;6185203;28;96665;-60
2023/10/13 01:33:34;;;;;;;;;7.00;7.00;;;;;19.22;100.00;98766.72;6187700;28;96456;-59
2023/10/13 01:36:40;;;;;;;;;7.50;6.50;;;;;19.17;100.00;98769.47;6194571;28;96543;-60
2023/10/13 01:39:47;;;;;;;;;7.25;5.25;;;;;19.18;100.00;98773.84;6198458;28;96368;-60
2023/10/13 01:42:55;;;;;;;;;15.00;13.00;;;;;19.15;100.00;98774.44;6203880;28;97879;-61
2023/10/13 01:45:57;;;;;;;;;15.00;13.60;;;;;19.13;100.00;98771.16;6216763;28;96305;-59
2023/10/13 01:49:02;;;;;;;;;9.50;9.00;;;;;19.13;100.00;98771.97;6186689;28;96633;-59
2023/10/13 01:52:04;;;;;;;;;9.60;9.00;;;;;19.14;100.00;98770.88;6200576;28;96501;-59
2023/10/13 01:55:11;;;;;;;;;7.80;7.80;;;;;19.15;100.00;98777.97;6190277;28;97041;-60
2023/10/13 01:58:15;;;;;;;;;6.60;6.00;;;;;19.17;100.00;98769.47;6207738;28;96303;-60
2023/10/13 02:01:26;;;;;;;;;7.00;7.00;;;;;19.17;100.00;98762.09;6194899;28;96939;-59
2023/10/13 02:04:32;;;;;;;;;8.00;8.00;;;;;19.18;100.00;98758.28;6172838;28;96726;-59
2023/10/13 02:07:38;;;;;;;;;9.00;8.40;;;;;19.12;100.00;98747.66;6189911;28;96390;-60
2023/10/13 02:10:43;;;;;;;;;7.60;6.60;;;;;19.15;100.00;98756.13;6189971;28;96699;-60
2023/10/13 02:13:49;;;;;;;;;7.50;7.50;;;;;19.16;100.00;98755.00;6193395;28;96278;-59
2023/10/13 02:16:55;;;;;;;;;8.00;7.00;;;;;19.16;100.00;98751.44;6183003;28;96793;-60
2023/10/13 02:19:57;;;;;;;;;5.00;5.00;;;;;19.12;100.00;98748.47;6183075;28;96447;-60
2023/10/13 02:23:01;;;;;;;;;7.00;6.25;;;;;19.12;100.00;98751.19;6196322;28;96564;-60
2023/10/13 02:26:11;;;;;;;;;5.80;5.20;;;;;19.14;100.00;98748.19;6197428;28;96443;-60
2023/10/13 02:29:17;;;;;;;;;7.25;5.75;;;;;19.08;100.00;98741.09;6182316;28;96690;-61
2023/10/13 02:32:20;;;;;;;;;7.60;6.60;;;;;19.10;100.00;98737.00;6188974;28;98620;-60
2023/10/13 02:35:29;;;;;;;;;7.00;6.00;;;;;19.10;100.00;98750.69;6214795;28;96810;-61
2023/10/13 02:38:42;;;;;;;;;5.25;5.00;;;;;19.08;100.00;98747.41;6182226;28;96855;-59
2023/10/13 02:41:48;;;;;;;;;8.00;7.00;;;;;19.08;100.00;98747.41;6175124;28;97646;-60
2023/10/13 02:44:53;;;;;;;;;6.20;6.00;;;;;19.08;100.00;98747.41;6194702;28;96300;-65
2023/10/13 02:48:11;;;;;;;;;5.00;4.00;;;;;19.10;100.00;98744.41;6187844;28;96809;-65
2023/10/13 02:51:16;;;;;;;;;6.00;6.00;;;;;19.10;100.00;98741.66;6211640;28;96851;-65
2023/10/13 02:54:20;;;;;;;;;7.00;6.00;;;;;19.08;100.00;98735.66;6178507;28;98432;-65
2023/10/13 02:57:25;;;;;;;;;7.00;6.00;;;;;19.07;100.00;98748.50;6177403;28;96564;-65
2023/10/13 03:00:31;;;;;;;;;8.00;7.20;;;;;19.03;100.00;98747.41;6190298;28;97675;-65
2023/10/13 03:03:35;;;;;;;;;6.00;6.00;;;;;18.93;100.00;98742.00;6206043;28;96459;-65
2023/10/13 03:06:40;;;;;;;;;5.20;4.60;;;;;18.96;100.00;98761.38;6208585;28;96680;-65
2023/10/13 03:09:50;;;;;;;;;7.25;6.00;;;;;18.93;100.00;98766.56;6182987;28;96274;-64
2023/10/13 03:12:56;;;;;;;;;8.00;6.00;;;;;18.91;100.00;98760.59;6186065;28;99005;-65
2023/10/13 03:15:59;;;;;;;;;6.25;6.00;;;;;18.87;100.00;98759.50;6185342;28;96749;-65
2023/10/13 03:19:07;;;;;;;;;6.40;6.00;;;;;18.83;100.00;98748.31;6205746;28;97566;-64
2023/10/13 03:22:12;;;;;;;;;7.00;6.20;;;;;18.79;100.00;98758.16;6167934;28;97698;-65
2023/10/13 03:25:23;;;;;;;;;7.00;7.00;;;;;18.79;100.00;98741.78;6205968;28;96288;-64
2023/10/13 03:28:33;;;;;;;;;7.00;6.00;;;;;18.83;100.00;98748.31;6177761;28;96551;-64
2023/10/13 03:31:39;;;;;;;;;6.80;5.20;;;;;18.83;100.00;98748.31;6202136;28;96995;-65
2023/10/13 03:34:52;;;;;;;;;7.00;6.00;;;;;18.83;100.00;98751.03;6188469;28;96547;-65
2023/10/13 03:37:56;;;;;;;;;6.00;6.00;;;;;18.84;100.00;98746.41;6171148;28;96706;-64
2023/10/13 03:41:07;;;;;;;;;6.40;6.00;;;;;18.83;100.00;98750.22;6194804;28;96601;-65
2023/10/13 03:44:17;;;;;;;;;6.40;6.40;;;;;18.84;100.00;98760.88;6211843;28;97129;-64
2023/10/13 03:47:26;;;;;;;;;9.00;8.00;;;;;18.83;100.00;98766.63;6202602;28;97142;-64
2023/10/13 03:50:31;;;;;;;;;9.80;9.00;;;;;18.85;100.00;98770.72;6194841;28;97285;-63
2023/10/13 03:53:36;;;;;;;;;7.00;6.20;;;;;18.84;100.00;98771.00;6202055;28;97702;-65
2023/10/13 03:56:39;;;;;;;;;8.00;7.60;;;;;18.87;100.00;98770.41;6210315;28;96732;-61
2023/10/13 03:59:48;;;;;;;;;7.00;6.40;;;;;18.87;100.00;98771.25;6213475;28;96549;-61
2023/10/13 04:03:04;;;;;;;;;7.00;6.50;;;;;18.84;100.00;98776.44;6214198;28;96593;-61
2023/10/13 04:06:16;;;;;;;;;8.00;7.00;;;;;18.79;100.00;98780.00;6215187;28;96288;-60
2023/10/13 04:16:34;;;;;;;;;6.50;6.50;;;;;18.58;100.00;98778.41;6195386;28;98581;-61
2023/10/13 04:20:12;;;;;;;;;7.40;7.00;;;;;18.58;100.00;98779.25;6206959;28;96382;-61
2023/10/13 04:26:22;;;;;;;;;7.40;7.00;;;;;18.56;100.00;98772.44;6195999;28;96777;-60
2023/10/13 04:29:45;;;;;;;;;7.00;6.00;;;;;18.58;100.00;98776.50;6194696;28;96635;-61
2023/10/13 04:33:06;;;;;;;;;9.00;8.60;;;;;18.62;100.00;98762.31;6212807;28;96948;-61
2023/10/13 04:36:13;;;;;;;;;8.60;8.60;;;;;18.63;100.00;98772.94;6201481;28;96271;-61
2023/10/13 04:39:29;;;;;;;;;9.00;7.00;;;;;18.64;100.00;98766.41;6195263;28;96614;-61
2023/10/13 04:42:50;;;;;;;;;10.50;9.00;;;;;18.64;100.00;98773.78;6215927;28;96266;-61
2023/10/13 04:45:54;;;;;;;;;8.00;7.60;;;;;18.63;100.00;98772.13;6198771;28;96701;-61
2023/10/13 04:49:01;;;;;;;;;8.00;7.00;;;;;18.66;100.00;98777.88;6196921;28;98288;-61
2023/10/13 04:52:26;;;;;;;;;8.60;8.00;;;;;18.69;100.00;98776.47;6199882;28;96624;-62
2023/10/13 04:55:59;;;;;;;;;11.40;9.80;;;;;18.72;100.00;98792.31;6197598;28;96317;-61
2023/10/13 05:49:49;;;;;;;;;8.00;8.00;;;;;19.50;100.00;98817.22;6138703;28;96449;-60
2023/10/13 06:29:58;;;;;;;;;15.20;12.20;;;;;19.37;100.00;98835.00;6193096;28;96519;-60
2023/10/13 06:33:04;;;;;;;;;11.00;11.00;;;;;19.46;100.00;98855.22;6193607;28;96336;-60
2023/10/13 06:36:09;;;;;;;;;13.80;11.00;;;;;19.47;100.00;98845.94;6198468;28;96485;-61
2023/10/13 06:39:35;;;;;;;;;11.25;11.00;;;;;19.50;100.00;98848.09;6202525;28;96512;-61
2023/10/13 06:42:42;;;;;;;;;13.00;11.00;;;;;19.55;100.00;98852.75;6221624;28;96413;-61
2023/10/13 06:45:56;;;;;;;;;13.00;12.00;;;;;19.56;100.00;98855.19;6203217;28;96525;-61
2023/10/13 06:49:02;;;;;;;;;14.00;11.40;;;;;19.59;100.00;98848.34;6178214;28;98502;-60
2023/10/13 06:52:06;;;;;;;;;15.50;12.50;;;;;19.61;100.00;98849.69;6196623;28;96533;-61
2023/10/13 06:55:12;;;;;;;;;13.60;12.00;;;;;19.66;100.00;98848.84;6207996;28;96255;-61
2023/10/13 06:58:23;;;;;;;;;10.80;10.00;;;;;19.73;100.00;98849.34;6200729;28;96489;-61
2023/10/13 07:01:28;;;;;;;;;11.00;11.00;;;;;19.76;100.00;98843.31;6217470;28;96476;-60
2023/10/13 07:04:32;;;;;;;;;14.00;13.40;;;;;19.84;100.00;98845.47;6193356;28;96573;-61
2023/10/13 07:07:36;;;;;;;;;12.00;11.00;;;;;19.90;100.00;98844.31;6178299;28;96703;-61
2023/10/13 07:10:48;;;;;;;;;14.00;12.00;;;;;20.01;100.00;98848.63;6207459;28;96395;-60
2023/10/13 07:13:52;;;;;;;;;13.00;11.00;;;;;20.10;100.00;98851.56;6207761;28;96594;-61
2023/10/13 07:17:02;;;;;;;;;11.25;10.00;;;;;20.18;100.00;98843.56;6194175;28;97680;-61
2023/10/13 07:20:14;;;;;;;;;9.00;8.00;;;;;20.28;100.00;98842.69;6195141;28;96328;-61
2023/10/13 07:23:20;;;;;;;;;10.00;8.20;;;;;20.38;100.00;98850.03;6176517;28;96523;-60
2023/10/13 07:26:24;;;;;;;;;9.80;9.80;;;;;20.48;100.00;98856.22;6192625;28;96397;-62
2023/10/13 07:29:27;;;;;;;;;11.00;10.00;;;;;20.58;100.00;98849.84;6172300;28;97332;-63
2023/10/13 07:32:33;;;;;;;;;8.50;7.75;;;;;20.65;100.00;98859.38;6173052;28;96995;-63
2023/10/13 07:35:37;;;;;;;;;7.20;7.20;;;;;20.70;100.00;98864.00;6204421;28;96619;-62
2023/10/13 07:38:42;;;;;;;;;9.25;9.00;;;;;20.77;100.00;98862.53;6215188;28;96279;-63
2023/10/13 07:41:51;;;;;;;;;8.20;8.00;;;;;20.87;100.00;98858.06;6215303;28;96353;-62
2023/10/13 07:44:55;;;;;;;;;9.00;9.00;;;;;20.94;100.00;98864.03;6190060;28;96331;-62
2023/10/13 07:48:00;;;;;;;;;9.75;8.25;;;;;21.07;100.00;98857.84;6190160;28;96485;-62
2023/10/13 07:51:09;;;;;;;;;7.00;6.60;;;;;21.32;100.00;98865.00;6189494;28;96632;-61
2023/10/13 07:54:21;;;;;;;;;8.00;7.00;;;;;21.63;100.00;98868.22;6190952;28;97526;-62
2023/10/13 07:57:29;;;;;;;;;5.75;5.75;;;;;21.87;100.00;98867.06;6190455;28;96994;-62
2023/10/13 08:00:46;;;;;;;;;9.60;9.00;;;;;22.19;100.00;98865.50;6190002;28;96360;-62
2023/10/13 08:04:04;;;;;;;;;8.80;7.20;;;;;22.72;100.00;98866.06;6189986;28;96411;-63
2023/10/13 08:07:13;;;;;;;;;5.20;5.20;;;;;23.00;100.00;98865.00;6190175;28;96309;-62
2023/10/13 08:10:17;;;;;;;;;6.00;5.25;;;;;23.10;100.00;98872.25;6190188;28;96300;-62
2023/10/13 08:13:20;;;;;;;;;7.40;7.40;;;;;23.80;100.00;98867.25;6171779;28;96841;-62
2023/10/13 08:16:29;;;;;;;;;9.80;7.80;;;;;24.76;100.00;98861.44;6190443;28;96421;-63
2023/10/13 08:19:41;;;;;;;;;7.00;6.50;;;;;25.26;100.00;98870.31;6188822;28;96454;-62
2023/10/13 08:22:47;;;;;;;;;7.00;6.60;;;;;25.80;100.00;98871.84;6187949;28;96466;-62
2023/10/13 08:32:44;;;;;;;;;7.00;7.00;;;;;26.27;100.00;98873.69;6178252;28;96881;-62
2023/10/13 08:36:27;;;;;;;;;7.40;6.00;;;;;26.45;100.00;98870.91;6202708;28;97413;-60
2023/10/13 08:43:09;;;;;;;;;6.00;5.00;;;;;30.23;100.00;98870.72;6190825;28;96381;-60
2023/10/13 08:46:27;;;;;;;;;5.00;5.00;;;;;32.58;100.00;98873.59;6188334;28;96723;-61
2023/10/13 08:49:32;;;;;;;;;5.00;5.00;;;;;34.78;100.00;98880.84;6192156;28;96920;-60
2023/10/13 08:52:46;;;;;;;;;7.00;6.00;;;;;36.53;97.29;98872.69;6174676;28;97871;-60
2023/10/13 08:56:02;;;;;;;;;6.00;5.00;;;;;38.03;89.86;98874.56;6193549;28;96342;-61
2023/10/13 08:59:09;;;;;;;;;7.80;7.00;;;;;39.13;84.73;98869.31;6190824;28;96660;-61
2023/10/13 09:02:17;;;;;;;;;7.00;6.00;;;;;40.28;79.83;98862.28;6198563;28;96315;-60
2023/10/13 09:05:41;;;;;;;;;6.20;5.20;;;;;41.41;75.96;98865.63;6192140;28;96484;-60
2023/10/13 09:09:04;;;;;;;;;5.00;4.00;;;;;42.42;68.64;98864.25;6192896;28;96427;-60
2023/10/13 09:12:13;;;;;;;;;7.00;6.00;;;;;43.08;59.13;98863.25;6192454;28;96158;-61
2023/10/13 09:15:19;;;;;;;;;8.00;6.00;;;;;43.68;53.68;98855.31;6212071;28;96340;-61
2023/10/13 09:18:47;;;;;;;;;6.00;6.00;;;;;43.61;51.21;98854.25;6216255;28;96592;-62
2023/10/13 09:21:54;;;;;;;;;6.00;5.80;;;;;43.39;50.37;98866.56;6173160;28;96898;-61
2023/10/13 09:25:00;;;;;;;;;5.60;5.20;;;;;43.54;47.08;98865.00;6182393;28;98401;-61
2023/10/13 09:28:09;;;;;;;;;8.00;7.00;;;;;43.93;46.72;98858.34;6191688;28;96262;-61
2023/10/13 09:31:13;;;;;;;;;5.00;5.00;;;;;44.02;51.02;98853.63;6193348;28;96538;-61
2023/10/13 09:34:29;;;;;;;;;6.00;6.00;;;;;43.96;44.58;98846.06;6227072;28;96784;-61
2023/10/13 09:37:37;;;;;;;;;6.60;6.00;;;;;44.50;45.47;98831.97;6216444;28;96395;-58
2023/10/13 09:40:46;;;;;;;;;8.00;7.00;;;;;45.01;45.48;98835.69;6198090;28;96278;-61
2023/10/13 09:43:51;;;;;;;;;7.20;5.20;;;;;45.29;44.26;98831.16;6209465;28;97292;-60
2023/10/13 09:46:59;;;;;;;;;5.00;5.00;;;;;45.43;43.85;98829.91;6192732;28;96289;-64
2023/10/13 09:50:24;;;;;;;;;5.00;5.00;;;;;45.35;41.29;98831.38;6192604;28;96336;-64
2023/10/13 09:53:29;;;;;;;;;6.20;5.60;;;;;45.13;42.64;98826.38;6195751;28;96790;-64
2023/10/13 09:56:51;;;;;;;;;7.00;5.00;;;;;45.56;44.19;98830.66;6216738;28;96618;-65
2023/10/13 10:00:06;;;;;;;;;5.80;5.80;;;;;45.60;43.54;98822.81;6198979;28;96441;-65
2023/10/13 10:03:15;;;;;;;;;5.25;5.00;;;;;45.76;40.88;98830.38;6214958;28;96439;-62
2023/10/13 10:06:28;;;;;;;;;5.00;5.00;;;;;45.92;40.49;98821.72;6197104;28;97477;-65
2023/10/13 10:09:36;;;;;;;;;5.00;5.00;;;;;46.05;40.72;98828.13;6216706;28;96266;-62
2023/10/13 10:12:50;;;;;;;;;5.00;5.00;;;;;45.69;40.23;98825.75;6215182;28;96490;-65
2023/10/13 10:16:00;;;;;;;;;5.40;5.40;;;;;45.44;39.70;98814.41;6228544;28;96320;-62
2023/10/13 10:19:03;;;;;;;;;6.40;6.40;;;;;45.22;39.36;98808.59;6216387;28;96285;-63
2023/10/13 10:22:16;;;;;;;;;7.00;7.00;;;;;45.32;39.84;98798.13;6216234;28;96716;-63
2023/10/13 10:25:34;;;;;;;;;6.00;6.00;;;;;45.64;41.46;98798.66;6200590;28;96322;-63
2023/10/13 10:28:41;;;;;;;;;7.00;7.00;;;;;45.04;41.81;98791.31;6192080;28;98389;-63
2023/10/13 10:31:45;;;;;;;;;7.00;6.00;;;;;44.58;42.54;98778.50;6173481;28;96408;-62
2023/10/13 10:34:49;;;;;;;;;6.00;5.20;;;;;44.42;44.81;98787.94;6202333;28;98045;-63
2023/10/13 10:37:52;;;;;;;;;5.60;5.60;;;;;44.36;44.11;98786.91;6198130;28;96305;-63
2023/10/13 10:40:58;;;;;;;;;6.50;6.00;;;;;44.17;43.69;98773.66;6215958;28;96342;-65
2023/10/13 10:44:08;;;;;;;;;6.75;5.50;;;;;44.11;44.93;98778.28;6213597;28;96676;-63
2023/10/13 10:47:19;;;;;;;;;7.00;5.40;;;;;43.96;45.83;98780.72;6215429;28;96277;-63
2023/10/13 10:50:34;;;;;;;;;5.20;5.20;;;;;42.68;50.25;98774.63;6197425;28;96659;-63
2023/10/13 10:53:44;;;;;;;;;6.00;4.00;;;;;42.47;49.70;98778.69;6209934;28;96575;-63
2023/10/13 10:56:52;;;;;;;;;6.00;6.00;;;;;42.67;52.91;98750.31;6189980;28;98558;-59
2023/10/13 11:00:11;;;;;;;;;6.60;6.00;;;;;42.99;47.64;98755.25;6218711;28;96595;-59
2023/10/13 11:03:14;;;;;;;;;5.00;5.00;;;;;43.30;47.08;98756.53;6210018;28;96331;-59
2023/10/13 11:06:20;;;;;;;;;5.25;5.25;;;;;43.22;46.42;98743.75;6219947;28;96732;-60
2023/10/13 11:09:36;;;;;;;;;6.00;6.00;;;;;43.48;47.06;98758.91;6205228;28;96859;-58
2023/10/13 11:12:40;;;;;;;;;6.00;5.20;;;;;43.51;48.54;98750.28;6199076;28;97717;-59
2023/10/13 11:15:45;;;;;;;;;6.00;5.00;;;;;43.34;46.61;98733.72;6213240;28;96578;-58
2023/10/13 11:18:48;;;;;;;;;5.00;4.00;;;;;43.67;46.64;98737.31;6218694;28;96674;-58
2023/10/13 11:21:53;;;;;;;;;5.00;5.00;;;;;43.76;46.50;98743.94;6218294;28;96381;-59
2023/10/13 11:24:59;;;;;;;;;4.00;4.00;;;;;43.90;46.59;98739.91;6209111;28;97250;-59
2023/10/13 11:28:17;;;;;;;;;5.00;5.00;;;;;43.77;41.80;98734.16;6211396;28;96711;-59
2023/10/13 11:31:24;;;;;;;;;7.00;6.50;;;;;43.62;45.65;98747.16;6218881;28;97014;-58
2023/10/13 11:34:39;;;;;;;;;6.00;5.50;;;;;43.63;46.91;98730.94;6220296;28;96498;-58
2023/10/13 11:37:43;;;;;;;;;6.00;5.00;;;;;42.76;48.06;98728.63;6215914;28;96979;-59
2023/10/13 11:41:06;;;;;;;;;7.00;6.00;;;;;41.15;52.78;98739.97;6184442;28;98634;-59
2023/10/13 11:47:47;;;;;;;;;5.00;5.00;;;;;39.22;60.86;98731.47;6213319;28;97059;-58
2023/10/13 11:50:51;;;;;;;;;5.00;4.75;;;;;39.32;58.13;98724.97;6220571;28;96252;-57
2023/10/13 11:53:55;;;;;;;;;4.60;4.00;;;;;38.99;61.80;98703.91;6207785;28;96866;-58
2023/10/13 11:56:59;;;;;;;;;6.00;6.00;;;;;38.69;61.80;98722.63;6217646;28;96411;-58
2023/10/13 12:07:14;;;;;;;;;5.00;4.00;;;;;37.60;68.18;98711.44;6277823;27;96311;-62
2023/10/13 12:10:33;;;;;;;;;5.00;4.60;;;;;37.53;68.97;98713.44;6284606;27;96294;-61
2023/10/13 12:13:39;;;;;;;;;5.40;5.40;;;;;36.97;72.21;98703.03;6261866;27;96263;-61
2023/10/13 12:16:43;;;;;;;;;5.40;5.40;;;;;36.32;74.86;98702.13;6249648;27;96736;-63
2023/10/13 12:19:51;;;;;;;;;5.25;4.25;;;;;35.37;79.78;98699.66;6240821;27;96530;-60
2023/10/13 12:22:55;;;;;;;;;6.00;5.20;;;;;34.72;83.74;98703.16;6258882;27;96971;-62
2023/10/13 12:26:00;;;;;;;;;5.60;4.00;;;;;34.16;87.37;98694.13;6271725;27;97021;-62
2023/10/13 12:29:06;;;;;;;;;4.00;4.00;;;;;34.15;87.69;98690.53;6262788;27;96262;-60
2023/10/13 12:32:12;;;;;;;;;5.00;5.00;;;;;34.18;87.66;98698.16;6241692;27;96638;-60
2023/10/13 12:35:29;;;;;;;;;3.00;3.00;;;;;34.11;87.71;98697.25;6251675;27;96729;-60
2023/10/13 12:48:55;;;;;;;;;5.00;5.00;;;;;33.71;91.22;98687.59;6256840;27;96607;-60
2023/10/13 12:49:15;;;;;;;;;4.00;4.00;;;;;32.24;98.99;98665.22;6236739;27;97683;-61
2023/10/13 12:52:20;;;;;;;;;7.00;5.00;;;;;32.19;99.33;98688.66;6266536;27;97011;-61
2023/10/13 12:55:24;;;;;;;;;4.00;4.00;;;;;31.67;100.00;98680.78;6268929;27;96764;-61
2023/10/13 12:58:29;;;;;;;;;6.00;5.00;;;;;31.46;100.00;98685.06;6279074;27;97266;-61
2023/10/13 13:01:34;;;;;;;;;5.75;5.00;;;;;31.44;100.00;98679.88;6259790;27;96278;-61
2023/10/13 13:04:37;;;;;;;;;3.67;3.67;;;;;31.51;100.00;98668.06;6263194;27;96493;-62
2023/10/13 13:07:47;;;;;;;;;5.00;4.00;;;;;31.86;100.00;98676.41;6272713;27;96905;-61
2023/10/13 13:10:51;;;;;;;;;5.00;5.00;;;;;32.11;100.00;98677.72;6262053;27;96720;-61
2023/10/13 13:13:55;;;;;;;;;5.00;4.60;;;;;32.34;100.00;98672.19;6257830;27;96598;-61
2023/10/13 13:17:04;;;;;;;;;5.60;5.00;;;;;32.24;100.00;98668.03;6241279;27;96882;-62
2023/10/13 13:20:25;;;;;;;;;5.40;5.00;;;;;32.12;100.00;98663.41;6246656;27;97072;-63
2023/10/13 13:23:31;;;;;;;;;7.75;6.00;;;;;31.81;100.00;98656.00;6254698;27;96754;-63
2023/10/13 13:26:34;;;;;;;;;5.00;5.00;;;;;31.75;100.00;98657.47;6252538;27;96760;-63
2023/10/13 13:29:37;;;;;;;;;4.00;4.00;;;;;31.58;100.00;98668.25;6259939;27;96274;-63
2023/10/13 13:32:41;;;;;;;;;4.00;4.00;;;;;31.50;100.00;98664.47;6229676;27;98876;-64
2023/10/13 13:35:48;;;;;;;;;5.00;4.00;;;;;31.63;100.00;98662.38;6244264;27;97743;-64
2023/10/13 13:38:54;;;;;;;;;5.00;5.00;;;;;31.73;100.00;98653.44;6258401;27;96466;-61
2023/10/13 13:41:57;;;;;;;;;4.00;3.75;;;;;31.82;100.00;98651.22;6261918;27;96929;-62
2023/10/13 13:45:01;;;;;;;;;5.00;5.00;;;;;31.75;100.00;98642.72;6217832;27;98623;-65
2023/10/13 13:48:07;;;;;;;;;4.00;4.00;;;;;31.65;100.00;98640.53;6220890;28;96910;-64
2023/10/13 13:51:15;;;;;;;;;5.75;4.75;;;;;31.42;100.00;98639.63;6247532;27;96844;-65
2023/10/13 13:54:21;;;;;;;;;5.00;4.00;;;;;31.36;100.00;98631.56;6218403;27;98490;-65
2023/10/13 13:57:24;;;;;;;;;3.20;3.00;;;;;31.23;100.00;98626.44;6261907;27;96888;-63
2023/10/13 14:00:37;;;;;;;;;4.00;4.00;;;;;30.88;100.00;98627.25;6254212;27;96584;-65
2023/10/13 14:03:45;;;;;;;;;5.00;4.00;;;;;30.45;100.00;98619.00;6239217;27;96559;-63
2023/10/13 14:06:50;;;;;;;;;6.60;5.00;;;;;30.19;100.00;98621.50;6231666;27;98025;-63
2023/10/13 14:10:05;;;;;;;;;5.00;5.00;;;;;30.04;100.00;98620.31;6252463;27;96309;-63
2023/10/13 14:13:13;;;;;;;;;4.00;4.00;;;;;29.79;100.00;98616.84;6232420;27;96678;-63
2023/10/13 14:16:20;;;;;;;;;4.40;4.40;;;;;29.54;100.00;98616.13;6227193;27;96663;-63
2023/10/13 14:19:27;;;;;;;;;5.00;4.00;;;;;29.11;100.00;98614.03;6245505;27;96512;-63
2023/10/13 14:22:36;;;;;;;;;6.50;5.50;;;;;28.82;100.00;98617.91;6232250;27;96499;-63
2023/10/13 14:25:44;;;;;;;;;7.00;5.00;;;;;28.55;100.00;98621.31;6245897;27;96710;-64
2023/10/13 14:28:51;;;;;;;;;7.00;6.00;;;;;28.36;100.00;98610.81;6243011;27;97506;-65
2023/10/13 14:31:55;;;;;;;;;6.00;4.00;;;;;28.09;100.00;98613.41;6231813;28;98495;-66
2023/10/13 14:35:00;;;;;;;;;5.00;4.00;;;;;27.96;100.00;98615.31;6241308;27;96770;-65
2023/10/13 14:38:04;;;;;;;;;10.60;8.60;;;;;27.92;100.00;98617.97;6230233;28;96677;-64
2023/10/13 14:41:08;;;;;;;;;3.40;3.00;;;;;27.93;100.00;98616.00;6242547;27;96619;-64
2023/10/13 14:44:12;;;;;;;;;3.80;3.80;;;;;28.05;100.00;98613.28;6241519;27;96529;-64
2023/10/13 14:47:16;;;;;;;;;5.00;4.00;;;;;28.23;100.00;98603.63;6231334;27;98545;-64
2023/10/13 14:50:20;;;;;;;;;5.00;4.00;;;;;28.18;100.00;98609.41;6250693;27;96502;-64
2023/10/13 14:53:23;;;;;;;;;4.75;4.00;;;;;28.18;100.00;98606.63;6230684;27;98639;-66
2023/10/13 14:56:28;;;;;;;;;5.00;5.00;;;;;28.15;100.00;98598.19;6228943;27;96814;-63
2023/10/13 14:59:38;;;;;;;;;3.20;3.20;;;;;28.18;100.00;98600.28;6246880;27;96701;-64
2023/10/13 15:02:42;;;;;;;;;7.40;5.00;;;;;28.10;100.00;98606.72;6250326;27;96846;-64
2023/10/13 15:05:46;;;;;;;;;5.60;4.60;;;;;27.90;100.00;98592.59;6214613;27;98454;-65
2023/10/13 15:08:49;;;;;;;;;6.00;4.80;;;;;27.87;100.00;98607.09;6245320;27;96853;-65
2023/10/13 15:11:54;;;;;;;;;6.00;5.00;;;;;27.73;100.00;98612.13;6248001;27;96676;-65
2023/10/13 15:14:58;;;;;;;;;7.00;7.00;;;;;27.55;100.00;98608.72;6233899;27;96890;-65
2023/10/13 15:18:02;;;;;;;;;5.40;5.40;;;;;27.42;100.00;98603.44;6246250;27;96608;-65
2023/10/13 15:21:08;;;;;;;;;7.00;7.00;;;;;27.21;100.00;98603.47;6223677;27;99054;-65
2023/10/13 15:24:14;;;;;;;;;6.80;6.80;;;;;26.91;100.00;98599.94;6251670;27;96522;-65
2023/10/13 15:27:21;;;;;;;;;7.40;6.00;;;;;26.77;100.00;98599.34;6245249;27;97992;-65
2023/10/13 15:30:26;;;;;;;;;6.00;5.20;;;;;26.63;100.00;98605.09;6213980;27;96870;-65
2023/10/13 15:33:30;;;;;;;;;5.00;5.00;;;;;26.43;100.00;98592.06;6249715;27;96535;-65
2023/10/13 15:36:34;;;;;;;;;6.00;6.00;;;;;26.32;100.00;98595.50;6248756;27;96713;-66
2023/10/13 15:39:39;;;;;;;;;7.00;6.00;;;;;26.13;100.00;98591.19;6248019;27;97113;-65
2023/10/13 15:42:44;;;;;;;;;6.00;5.60;;;;;25.96;100.00;98577.41;6250649;27;97222;-66
2023/10/13 15:45:48;;;;;;;;;7.00;7.00;;;;;25.75;100.00;98588.38;6234511;27;98659;-65
2023/10/13 15:48:52;;;;;;;;;5.25;5.00;;;;;25.66;100.00;98584.78;6231127;27;96728;-65
2023/10/13 15:52:15;;;;;;;;;3.40;3.40;;;;;25.53;100.00;98576.66;6247926;27;96665;-66
2023/10/13 15:55:19;;;;;;;;;4.00;3.60;;;;;25.38;100.00;98573.28;6243064;27;96656;-65
2023/10/13 15:58:25;;;;;;;;;4.60;4.00;;;;;25.27;100.00;98577.50;6245334;27;97152;-64
2023/10/13 16:01:29;;;;;;;;;4.60;3.00;;;;;25.04;100.00;98581.56;6235708;27;96616;-64
2023/10/13 16:04:32;;;;;;;;;5.00;4.60;;;;;24.92;100.00;98573.91;6238825;27;96683;-63
2023/10/13 16:07:36;;;;;;;;;6.00;5.00;;;;;24.80;100.00;98570.16;6224973;27;96884;-65
2023/10/13 16:10:40;;;;;;;;;5.60;5.60;;;;;24.69;100.00;98569.66;6244475;27;96386;-63
2023/10/13 16:13:46;;;;;;;;;5.80;4.80;;;;;24.64;100.00;98563.47;6224022;28;96432;-63
2023/10/13 16:16:52;;;;;;;;;5.80;4.40;;;;;24.62;100.00;98572.09;6234800;27;98887;-65
2023/10/13 16:19:56;;;;;;;;;7.00;6.00;;;;;24.56;100.00;98565.91;6241693;27;96364;-65
2023/10/13 16:22:59;;;;;;;;;5.00;5.00;;;;;24.44;100.00;98565.69;6242966;27;96715;-65
2023/10/13 16:26:07;;;;;;;;;6.60;6.00;;;;;24.42;100.00;98567.97;6254354;27;96731;-64
2023/10/13 16:29:11;;;;;;;;;6.00;5.60;;;;;24.36;100.00;98572.00;6249965;27;96925;-65
2023/10/13 16:32:15;;;;;;;;;8.00;7.00;;;;;24.21;100.00;98558.66;6252906;27;96440;-65
2023/10/13 16:35:18;;;;;;;;;8.00;7.00;;;;;24.26;100.00;98577.81;6233672;27;97878;-65
2023/10/13 16:38:24;;;;;;;;;7.75;6.75;;;;;24.14;100.00;98564.59;6220681;27;99273;-64
2023/10/13 16:41:28;;;;;;;;;5.50;5.50;;;;;24.04;100.00;98564.88;6250984;27;96339;-65